LIVE Streaming HD
Get Adobe Flash player
Annunci di Google
SATELLITE
Annuci di Google
Dati meteo stazione (refresh automatico ogni minuto)
Latina(LT) VENTO: VELOCITÀ   PIOGGIA: QTA GIORNO TEMPERATURA: ATTUALE
SPOT: Latina lido
(Hotel Tirreno) Posizione su Googlemap: Latitudine 41.41 Longitudine 12.84
RAFFICA MASSIMA: QTA MENSILE: MASSIMA:
VELOCITÀ MEDIA: QTA ANNUALE: MINIMA:
DIREZIONE: UMIDITÀ: WIND CHILL:
TIPO: DEW POINT:
BEAUFORT: PRESSIONE:
I nostri partner
Latina(LT) nelle ultime ore
Applica filtri in visualizzazione Intervallo delle letture nelle ultime

Ora Direzione Vento Velocita' Vento Media Vento Raffica Max. Temperatura Wind Chill Pioggia Pressione
06:58:5963 °(ENE)1.2 Kts1.2 Kts5.6 Kts11.8 °C9.9 °C0 mm1019.6 Hpa
06:53:5963 °(ENE)1.2 Kts1.2 Kts5.6 Kts11.9 °C10 °C0 mm1019.4 Hpa
06:49:0363 °(ENE)0.3 Kts1.2 Kts5.6 Kts11.9 °C10 °C0 mm1019.2 Hpa
06:43:5863 °(ENE)1.2 Kts1.2 Kts5.6 Kts11.9 °C10 °C0 mm1019.2 Hpa
06:38:5063 °(ENE)1.2 Kts1.2 Kts5.6 Kts12 °C10.1 °C0 mm1019.2 Hpa
06:33:5063 °(ENE)1.2 Kts2.1 Kts5.6 Kts12 °C9.3 °C0 mm1019.1 Hpa
06:28:5066 °(ENE)2.1 Kts1.2 Kts5.6 Kts11.9 °C10 °C0 mm1019.1 Hpa
06:23:5071 °(ENE)2.1 Kts0.3 Kts5.6 Kts12.1 °C10.9 °C0 mm1019 Hpa
06:18:5071 °(ENE)0.3 Kts0.3 Kts5.6 Kts12.1 °C10.9 °C0 mm1018.9 Hpa
06:13:5572 °(ENE)1.2 Kts0 Kts5.6 Kts12.3 °C12.3 °C0 mm1018.9 Hpa
06:08:5882 °(E)0 Kts0 Kts5.6 Kts12.4 °C12.4 °C0 mm1018.7 Hpa
06:04:0182 °(E)0 Kts0.3 Kts5.6 Kts12.4 °C11.3 °C0 mm1018.9 Hpa
05:58:3182 °(E)0.3 Kts0.3 Kts5.6 Kts12.7 °C11.6 °C0 mm1018.7 Hpa
05:53:3392 °(E)0 Kts0.3 Kts5.6 Kts12.8 °C11.7 °C0 mm1018.7 Hpa
05:48:3692 °(E)0.3 Kts0.3 Kts5.6 Kts12.9 °C11.8 °C0 mm1018.7 Hpa
05:43:40113 °(ESE)0 Kts1.2 Kts5.6 Kts13.4 °C11.6 °C0 mm1018.5 Hpa
05:38:51113 °(ESE)1.2 Kts1.2 Kts5.6 Kts13.6 °C11.8 °C0 mm1018.6 Hpa
05:33:51113 °(ESE)0.3 Kts0.3 Kts5.6 Kts13.5 °C12.4 °C0 mm1018.6 Hpa
05:28:51113 °(ESE)0.3 Kts0.3 Kts5.6 Kts13.3 °C12.3 °C0 mm1018.5 Hpa
05:23:55109 °(ESE)1.2 Kts0 Kts5.6 Kts13.3 °C13.3 °C0 mm1018.6 Hpa
05:18:58109 °(ESE)0.3 Kts0 Kts5.6 Kts13.4 °C13.4 °C0 mm1018.5 Hpa
05:13:59109 °(ESE)0 Kts0 Kts5.6 Kts13.4 °C13.4 °C0 mm1018.5 Hpa
05:09:04109 °(ESE)0 Kts0 Kts5.6 Kts13.4 °C13.4 °C0 mm1018.5 Hpa
05:04:06109 °(ESE)0 Kts0.3 Kts5.6 Kts13.4 °C12.4 °C0 mm1018.4 Hpa